createdAt,value
2022-11-26T00:01:52.303Z,98192.13
2022-11-26T00:04:55.789Z,98182.84
2022-11-26T00:07:59.646Z,98190.47
2022-11-26T00:11:01.958Z,98200.72
2022-11-26T00:14:03.634Z,98205.00
2022-11-26T00:17:05.295Z,98205.00
2022-11-26T00:20:07.698Z,98201.44
2022-11-26T00:23:22.678Z,98206.91
2022-11-26T00:26:25.203Z,98210.38
2022-11-26T00:29:26.815Z,98212.38
2022-11-26T00:32:28.425Z,98220.59
2022-11-26T00:35:29.963Z,98227.16
2022-11-26T00:38:31.830Z,98231.09
2022-11-26T00:41:38.655Z,98227.38
2022-11-26T00:44:40.550Z,98233.22
2022-11-26T00:47:42.294Z,98230.84
2022-11-26T00:50:48.602Z,98235.00
2022-11-26T00:53:53.213Z,98241.66
2022-11-26T00:56:55.013Z,98239.25
2022-11-26T00:59:56.647Z,98249.72
2022-11-26T01:02:58.537Z,98247.94
2022-11-26T01:06:00.189Z,98245.72
2022-11-26T01:09:03.590Z,98257.28
2022-11-26T01:12:12.596Z,98255.72
2022-11-26T01:15:15.588Z,98265.66
2022-11-26T01:18:20.408Z,98271.25
2022-11-26T01:21:23.662Z,98282.00
2022-11-26T01:24:25.227Z,98282.34
2022-11-26T01:27:27.072Z,98284.66
2022-11-26T01:30:32.655Z,98287.28
2022-11-26T01:33:34.277Z,98291.09
2022-11-26T01:36:38.911Z,98302.06
2022-11-26T01:39:40.933Z,98309.72
2022-11-26T01:42:48.707Z,98311.25
2022-11-26T01:45:50.446Z,98323.16
2022-11-26T01:48:52.673Z,98325.69
2022-11-26T01:52:24.859Z,98329.03
2022-11-26T01:55:34.459Z,98332.97
2022-11-26T01:58:42.787Z,98332.72
2022-11-26T02:01:44.831Z,98334.97
2022-11-26T02:05:05.198Z,98337.59
2022-11-26T02:08:07.541Z,98341.53
2022-11-26T02:11:23.838Z,98349.78
2022-11-26T02:14:28.662Z,98357.28
2022-11-26T02:17:45.216Z,98351.69
2022-11-26T02:21:14.364Z,98349.91
2022-11-26T02:24:43.778Z,98345.25
2022-11-26T02:27:57.492Z,98348.13
2022-11-26T02:31:07.215Z,98357.66
2022-11-26T02:34:48.736Z,98353.38
2022-11-26T02:38:32.937Z,98355.84
2022-11-26T02:41:42.170Z,98356.47
2022-11-26T02:44:46.457Z,98358.84
2022-11-26T02:47:50.676Z,98353.59
2022-11-26T02:50:57.406Z,98350.38
2022-11-26T02:53:59.513Z,98372.56
2022-11-26T02:57:04.136Z,98379.22
2022-11-26T03:00:06.762Z,98384.00
2022-11-26T03:03:22.441Z,98391.88
2022-11-26T03:06:27.775Z,98386.41
2022-11-26T03:09:43.088Z,98382.94
2022-11-26T03:12:44.692Z,98376.50
2022-11-26T03:15:47.008Z,98380.09
2022-11-26T03:18:48.615Z,98379.25
2022-11-26T03:21:50.259Z,98378.16
2022-11-26T03:24:51.838Z,98380.28
2022-11-26T03:27:53.443Z,98381.59
2022-11-26T03:30:55.083Z,98377.16
2022-11-26T03:33:56.691Z,98378.56
2022-11-26T03:36:59.010Z,98376.78
2022-11-26T03:40:00.711Z,98377.50
2022-11-26T03:43:02.629Z,98385.38
2022-11-26T03:46:04.347Z,98380.34
2022-11-26T03:49:06.743Z,98380.72
2022-11-26T03:52:08.363Z,98377.81
2022-11-26T03:55:10.269Z,98376.28
2022-11-26T03:58:11.879Z,98366.72
2022-11-26T04:01:13.991Z,98373.16
2022-11-26T04:04:16.002Z,98370.13
2022-11-26T04:07:17.554Z,98369.88
2022-11-26T04:10:19.178Z,98365.31
2022-11-26T04:13:20.881Z,98366.31
2022-11-26T04:16:22.489Z,98375.81
2022-11-26T04:19:24.353Z,98371.00
2022-11-26T04:22:26.003Z,98377.63
2022-11-26T04:25:27.584Z,98381.41
2022-11-26T04:28:29.202Z,98386.13
2022-11-26T04:31:30.936Z,98383.63
2022-11-26T04:34:32.841Z,98387.19
2022-11-26T04:37:34.944Z,98385.50
2022-11-26T04:40:36.855Z,98384.06
2022-11-26T04:43:38.471Z,98386.88
2022-11-26T04:46:40.085Z,98396.09
2022-11-26T04:49:44.217Z,98403.41
2022-11-26T04:52:48.356Z,98399.91
2022-11-26T04:55:50.719Z,98397.59
2022-11-26T04:58:52.338Z,98399.53
2022-11-26T05:01:53.876Z,98401.09
2022-11-26T05:04:55.466Z,98402.22
2022-11-26T05:07:57.132Z,98409.97
2022-11-26T05:11:00.977Z,98413.31
2022-11-26T05:14:02.582Z,98407.25
2022-11-26T05:17:04.204Z,98411.81
2022-11-26T05:20:06.629Z,98416.69
2022-11-26T05:23:08.956Z,98421.63
2022-11-26T05:26:10.467Z,98423.16
2022-11-26T05:29:12.430Z,98429.22
2022-11-26T05:32:14.061Z,98431.75
2022-11-26T05:35:15.704Z,98428.09
2022-11-26T05:38:17.295Z,98424.59
2022-11-26T05:41:18.912Z,98442.41
2022-11-26T05:44:20.522Z,98450.03
2022-11-26T05:47:22.130Z,98441.34
2022-11-26T05:50:23.739Z,98442.88
2022-11-26T05:53:28.478Z,98434.19
2022-11-26T05:56:30.069Z,98445.28
2022-11-26T05:59:31.717Z,98459.13
2022-11-26T06:02:33.533Z,98453.66
2022-11-26T06:05:35.315Z,98465.47
2022-11-26T06:08:37.029Z,98469.66
2022-11-26T06:11:38.637Z,98480.03
2022-11-26T06:14:43.087Z,98488.88
2022-11-26T06:17:45.187Z,98490.53
2022-11-26T06:20:46.864Z,98500.78
2022-11-26T06:23:55.911Z,98500.69
2022-11-26T06:27:00.613Z,98497.00
2022-11-26T06:30:04.697Z,98491.84
2022-11-26T06:33:06.317Z,98505.81
2022-11-26T06:36:07.928Z,98508.91
2022-11-26T06:39:10.951Z,98501.19
2022-11-26T06:42:12.489Z,98512.41
2022-11-26T06:45:14.128Z,98513.34
2022-11-26T06:48:15.905Z,98507.78
2022-11-26T06:51:20.511Z,98505.97
2022-11-26T06:54:22.120Z,98521.25
2022-11-26T06:57:23.718Z,98520.16
2022-11-26T07:00:25.346Z,98522.50
2022-11-26T07:03:31.976Z,98524.50
2022-11-26T07:06:35.795Z,98527.84
2022-11-26T07:09:39.415Z,98523.84
2022-11-26T07:12:41.108Z,98523.38
2022-11-26T07:15:42.779Z,98521.97
2022-11-26T07:19:02.461Z,98523.66
2022-11-26T07:22:07.372Z,98534.03
2022-11-26T07:25:27.158Z,98533.06
2022-11-26T07:28:37.198Z,98529.16
2022-11-26T07:31:39.390Z,98539.00
2022-11-26T07:34:41.511Z,98534.56
2022-11-26T07:37:43.302Z,98539.66
2022-11-26T07:40:44.916Z,98542.56
2022-11-26T07:43:47.170Z,98549.25
2022-11-26T07:46:49.042Z,98549.03
2022-11-26T07:49:50.776Z,98548.94
2022-11-26T07:52:54.832Z,98545.72
2022-11-26T07:55:56.423Z,98555.41
2022-11-26T07:58:58.008Z,98556.53
2022-11-26T08:01:59.665Z,98550.06
2022-11-26T08:05:01.255Z,98554.13
2022-11-26T08:08:02.881Z,98564.19
2022-11-26T08:11:11.280Z,98557.84
2022-11-26T08:14:13.264Z,98549.41
2022-11-26T08:17:14.756Z,98557.16
2022-11-26T08:20:16.203Z,98558.59
2022-11-26T08:23:17.782Z,98557.66
2022-11-26T08:26:25.227Z,98556.56
2022-11-26T08:29:27.197Z,98565.66
2022-11-26T08:32:28.666Z,98555.63
2022-11-26T08:35:51.107Z,98554.53
2022-11-26T08:38:51.764Z,98552.84
2022-11-26T08:41:53.392Z,98552.03
2022-11-26T08:44:55.090Z,98555.94
2022-11-26T08:47:56.615Z,98553.41
2022-11-26T08:51:00.660Z,98558.22
2022-11-26T08:54:02.372Z,98562.84
2022-11-26T08:57:05.643Z,98571.31
2022-11-26T09:00:07.667Z,98572.38
2022-11-26T09:03:09.243Z,98564.38
2022-11-26T09:06:11.361Z,98570.47
2022-11-26T09:09:13.380Z,98568.19
2022-11-26T09:12:15.132Z,98574.16
2022-11-26T09:15:16.742Z,98572.97
2022-11-26T09:18:18.596Z,98580.59
2022-11-26T09:21:21.435Z,98584.66
2022-11-26T09:24:23.169Z,98574.72
2022-11-26T09:27:24.867Z,98572.44
2022-11-26T09:30:26.499Z,98584.50
2022-11-26T09:33:29.417Z,98589.97
2022-11-26T09:36:31.133Z,98589.47
2022-11-26T09:39:32.896Z,98592.44
2022-11-26T09:43:00.390Z,98590.53
2022-11-26T09:46:02.409Z,98588.94
2022-11-26T09:49:05.537Z,98589.41
2022-11-26T09:52:09.400Z,98582.91
2022-11-26T09:55:24.882Z,98587.41
2022-11-26T09:59:01.843Z,98581.50
2022-11-26T10:02:03.730Z,98571.88
2022-11-26T10:05:05.660Z,98570.63
2022-11-26T10:08:29.353Z,98571.31
2022-11-26T10:12:02.972Z,98567.75
2022-11-26T10:15:17.196Z,98566.63
2022-11-26T10:18:28.610Z,98563.47
2022-11-26T10:22:00.105Z,98569.06
2022-11-26T10:25:04.139Z,98559.00
2022-11-26T10:28:19.990Z,98556.13
2022-11-26T10:31:25.740Z,98561.06
2022-11-26T10:34:39.865Z,98559.72
2022-11-26T10:37:41.709Z,98555.44
2022-11-26T10:40:43.306Z,98559.91
2022-11-26T10:43:44.976Z,98559.34
2022-11-26T10:46:46.489Z,98554.13
2022-11-26T10:49:49.743Z,98561.47
2022-11-26T10:52:52.858Z,98549.97
2022-11-26T10:55:59.484Z,98546.31
2022-11-26T10:59:03.754Z,98535.94
2022-11-26T11:02:22.982Z,98537.28
2022-11-26T11:05:24.842Z,98533.69
2022-11-26T11:08:32.235Z,98522.84
2022-11-26T11:11:33.739Z,98519.38
2022-11-26T11:14:39.587Z,98502.16
2022-11-26T11:17:44.600Z,98517.59
2022-11-26T11:20:58.314Z,98524.13
2022-11-26T11:24:15.726Z,98529.53
2022-11-26T11:27:25.235Z,98520.50
2022-11-26T11:30:29.939Z,98515.63
2022-11-26T11:33:31.534Z,98531.75
2022-11-26T11:36:33.074Z,98516.72
2022-11-26T11:39:35.396Z,98517.47
2022-11-26T11:42:40.318Z,98515.91
2022-11-26T11:45:53.347Z,98530.34
2022-11-26T11:49:04.386Z,98522.00
2022-11-26T11:52:35.178Z,98515.34
2022-11-26T11:55:36.706Z,98502.44
2022-11-26T11:58:56.731Z,98498.41
2022-11-26T12:02:32.118Z,98494.38
2022-11-26T12:05:58.432Z,98483.69
2022-11-26T12:09:10.719Z,98483.13
2022-11-26T12:12:35.686Z,98485.34
2022-11-26T12:15:59.713Z,98489.50
2022-11-26T12:19:07.913Z,98484.66
2022-11-26T12:22:18.928Z,98487.28
2022-11-26T12:25:36.855Z,98486.31
2022-11-26T12:29:00.071Z,98488.25
2022-11-26T12:32:16.466Z,98492.41
2022-11-26T12:35:39.897Z,98491.47
2022-11-26T12:38:51.407Z,98492.97
2022-11-26T12:42:03.143Z,98473.81
2022-11-26T12:45:42.181Z,98492.84
2022-11-26T12:49:06.676Z,98491.97
2022-11-26T12:52:13.964Z,98491.13
2022-11-26T12:55:40.266Z,98485.22
2022-11-26T12:58:58.685Z,98485.22
2022-11-26T13:02:04.069Z,98480.34
2022-11-26T13:05:06.530Z,98482.16
2022-11-26T13:08:23.916Z,98470.50
2022-11-26T13:11:56.772Z,98477.31
2022-11-26T13:15:20.284Z,98466.78
2022-11-26T13:18:31.659Z,98483.66
2022-11-26T13:21:44.272Z,98478.94
2022-11-26T13:24:57.887Z,98481.44
2022-11-26T13:28:05.961Z,98481.16
2022-11-26T13:31:32.226Z,98487.56
2022-11-26T13:35:04.570Z,98472.69
2022-11-26T13:38:31.243Z,98471.19
2022-11-26T13:41:51.159Z,98477.00
2022-11-26T13:45:43.740Z,98485.50
2022-11-26T13:49:10.914Z,98480.91
2022-11-26T13:52:45.045Z,98462.25
2022-11-26T13:55:52.039Z,98460.03
2022-11-26T13:59:21.648Z,98476.44
2022-11-26T14:02:35.288Z,98478.97
2022-11-26T14:06:03.646Z,98461.28
2022-11-26T14:09:43.244Z,98473.31
2022-11-26T14:13:02.842Z,98478.84
2022-11-26T14:16:05.977Z,98471.88
2022-11-26T14:19:07.578Z,98480.34
2022-11-26T14:22:24.069Z,98479.78
2022-11-26T14:25:38.539Z,98472.31
2022-11-26T14:28:40.190Z,98476.06
2022-11-26T14:31:51.674Z,98468.16
2022-11-26T14:34:55.419Z,98466.03
2022-11-26T14:37:59.094Z,98472.66
2022-11-26T14:41:01.436Z,98482.66
2022-11-26T14:44:07.263Z,98477.44
2022-11-26T14:47:16.233Z,98481.97
2022-11-26T14:50:23.672Z,98482.81
2022-11-26T14:53:30.767Z,98490.25
2022-11-26T14:56:32.471Z,98495.25
2022-11-26T14:59:34.038Z,98493.16
2022-11-26T15:02:40.716Z,98496.38
2022-11-26T15:05:45.127Z,98494.50
2022-11-26T15:08:46.922Z,98491.53
2022-11-26T15:11:57.630Z,98501.75
2022-11-26T15:15:01.380Z,98502.59
2022-11-26T15:18:05.601Z,98498.66
2022-11-26T15:21:07.310Z,98497.22
2022-11-26T15:24:09.230Z,98494.75
2022-11-26T15:27:48.740Z,98487.81
2022-11-26T15:31:09.121Z,98477.41
2022-11-26T15:34:13.292Z,98487.28
2022-11-26T15:37:14.788Z,98481.06
2022-11-26T15:40:23.795Z,98490.38
2022-11-26T15:43:41.483Z,98490.59
2022-11-26T15:46:49.778Z,98483.66
2022-11-26T15:49:55.042Z,98476.97
2022-11-26T15:53:00.708Z,98467.91
2022-11-26T15:56:03.746Z,98457.91
2022-11-26T15:59:13.935Z,98463.59
2022-11-26T16:02:21.740Z,98458.09
2022-11-26T16:05:40.761Z,98468.38
2022-11-26T16:08:56.690Z,98456.44
2022-11-26T16:12:01.482Z,98455.13
2022-11-26T16:15:07.360Z,98459.56
2022-11-26T16:18:16.308Z,98451.78
2022-11-26T16:21:24.392Z,98457.06
2022-11-26T16:24:33.449Z,98455.28
2022-11-26T16:27:36.190Z,98452.66
2022-11-26T16:30:39.525Z,98459.19
2022-11-26T16:33:41.711Z,98457.16
2022-11-26T16:36:43.436Z,98459.06
2022-11-26T16:39:44.998Z,98453.34
2022-11-26T16:42:47.730Z,98452.06
2022-11-26T16:45:53.199Z,98445.06
2022-11-26T16:48:55.035Z,98444.25
2022-11-26T16:51:56.749Z,98445.13
2022-11-26T16:54:59.561Z,98449.34
2022-11-26T16:58:02.252Z,98446.19
2022-11-26T17:01:04.300Z,98460.25
2022-11-26T17:04:05.850Z,98468.38
2022-11-26T17:07:19.828Z,98463.25
2022-11-26T17:10:24.150Z,98462.97
2022-11-26T17:13:27.402Z,98458.00
2022-11-26T17:16:29.079Z,98453.09
2022-11-26T17:19:30.771Z,98458.84
2022-11-26T17:22:32.236Z,98459.19
2022-11-26T17:25:33.708Z,98456.34
2022-11-26T17:28:35.171Z,98463.38
2022-11-26T17:31:37.362Z,98455.66
2022-11-26T17:34:38.869Z,98461.50
2022-11-26T17:37:41.258Z,98460.75
2022-11-26T17:40:44.132Z,98457.22
2022-11-26T17:43:45.780Z,98455.28
2022-11-26T17:47:15.344Z,98456.09
2022-11-26T17:50:18.773Z,98456.56
2022-11-26T17:53:20.892Z,98454.91
2022-11-26T17:56:23.998Z,98465.88
2022-11-26T17:59:25.450Z,98462.66
2022-11-26T18:02:27.090Z,98470.06
2022-11-26T18:05:28.799Z,98468.00
2022-11-26T18:08:30.379Z,98474.09
2022-11-26T18:11:47.706Z,98473.50
2022-11-26T18:14:49.331Z,98480.47
2022-11-26T18:17:52.884Z,98471.41
2022-11-26T18:20:57.733Z,98467.31
2022-11-26T18:23:59.516Z,98470.41
2022-11-26T18:27:01.174Z,98465.59
2022-11-26T18:30:03.592Z,98466.06
2022-11-26T18:33:05.193Z,98467.22
2022-11-26T18:36:07.146Z,98470.06
2022-11-26T18:39:20.272Z,98468.75
2022-11-26T18:42:36.174Z,98472.53
2022-11-26T18:45:42.730Z,98463.19
2022-11-26T18:48:48.994Z,98453.78
2022-11-26T18:51:50.731Z,98445.41
2022-11-26T18:54:52.370Z,98446.81
2022-11-26T18:57:53.987Z,98450.09
2022-11-26T19:00:58.404Z,98456.78
2022-11-26T19:04:00.385Z,98460.38
2022-11-26T19:07:02.352Z,98454.16
2022-11-26T19:10:04.130Z,98453.78
2022-11-26T19:13:05.795Z,98441.97
2022-11-26T19:16:15.796Z,98443.88
2022-11-26T19:19:18.244Z,98449.31
2022-11-26T19:22:19.750Z,98442.00
2022-11-26T19:25:21.439Z,98445.16
2022-11-26T19:28:34.845Z,98439.44
2022-11-26T19:31:39.737Z,98437.00
2022-11-26T19:34:41.417Z,98444.16
2022-11-26T19:37:43.038Z,98431.47
2022-11-26T19:40:44.627Z,98434.50
2022-11-26T19:43:46.258Z,98423.00
2022-11-26T19:46:48.358Z,98424.53
2022-11-26T19:49:49.957Z,98420.22
2022-11-26T19:52:51.578Z,98430.59
2022-11-26T19:55:57.588Z,98431.97
2022-11-26T19:59:02.077Z,98426.13
2022-11-26T20:02:03.853Z,98430.63
2022-11-26T20:05:05.789Z,98428.97
2022-11-26T20:08:08.404Z,98432.97
2022-11-26T20:11:10.471Z,98431.19
2022-11-26T20:14:14.060Z,98432.34
2022-11-26T20:17:15.732Z,98430.88
2022-11-26T20:20:17.890Z,98433.50
2022-11-26T20:23:19.465Z,98435.72
2022-11-26T20:26:25.476Z,98433.31
2022-11-26T20:29:26.975Z,98436.66
2022-11-26T20:32:28.517Z,98441.88
2022-11-26T20:35:30.204Z,98434.91
2022-11-26T20:38:31.682Z,98428.19
2022-11-26T20:41:33.238Z,98420.66
2022-11-26T20:44:34.734Z,98414.38
2022-11-26T20:47:36.220Z,98408.75
2022-11-26T20:50:38.126Z,98402.34
2022-11-26T20:53:41.166Z,98396.50
2022-11-26T20:56:42.700Z,98388.94
2022-11-26T20:59:45.074Z,98389.28
2022-11-26T21:02:47.638Z,98377.66
2022-11-26T21:05:49.711Z,98375.47
2022-11-26T21:08:51.650Z,98366.91
2022-11-26T21:11:53.357Z,98364.78
2022-11-26T21:14:54.895Z,98371.16
2022-11-26T21:17:57.125Z,98369.69
2022-11-26T21:20:59.913Z,98369.78
2022-11-26T21:24:04.561Z,98384.09
2022-11-26T21:27:06.135Z,98394.97
2022-11-26T21:30:08.307Z,98385.72
2022-11-26T21:33:09.888Z,98390.22
2022-11-26T21:36:14.490Z,98397.22
2022-11-26T21:39:16.891Z,98400.03
2022-11-26T21:42:18.435Z,98404.44
2022-11-26T21:45:19.948Z,98405.66
2022-11-26T21:48:21.702Z,98400.94
2022-11-26T21:51:26.448Z,98403.03
2022-11-26T21:54:28.019Z,98407.78
2022-11-26T21:57:33.474Z,98397.09
2022-11-26T22:00:34.983Z,98399.72
2022-11-26T22:03:36.806Z,98398.34
2022-11-26T22:06:38.713Z,98403.09
2022-11-26T22:09:40.756Z,98420.44
2022-11-26T22:12:45.612Z,98420.53
2022-11-26T22:15:47.283Z,98424.19
2022-11-26T22:18:49.732Z,98424.38
2022-11-26T22:21:51.325Z,98429.78
2022-11-26T22:24:52.942Z,98429.22
2022-11-26T22:27:54.439Z,98434.44
2022-11-26T22:30:56.121Z,98431.09
2022-11-26T22:34:03.198Z,98431.09
2022-11-26T22:37:04.658Z,98429.63
2022-11-26T22:40:06.955Z,98432.69
2022-11-26T22:43:08.460Z,98436.53
2022-11-26T22:46:13.208Z,98442.88
2022-11-26T22:49:18.711Z,98443.13
2022-11-26T22:52:20.319Z,98430.28
2022-11-26T22:55:23.290Z,98426.00
2022-11-26T22:58:26.521Z,98434.09
2022-11-26T23:01:31.447Z,98416.06
2022-11-26T23:04:32.936Z,98413.72
2022-11-26T23:07:34.515Z,98408.00
2022-11-26T23:10:36.434Z,98405.41
2022-11-26T23:13:40.756Z,98390.16
2022-11-26T23:16:43.465Z,98392.94
2022-11-26T23:19:45.033Z,98390.63
2022-11-26T23:22:46.691Z,98381.31
2022-11-26T23:25:48.209Z,98375.53
2022-11-26T23:28:49.731Z,98374.22
2022-11-26T23:31:51.569Z,98369.25
2022-11-26T23:34:53.083Z,98362.56
2022-11-26T23:37:54.611Z,98352.31
2022-11-26T23:40:58.375Z,98355.69
2022-11-26T23:44:00.030Z,98346.56
2022-11-26T23:47:01.541Z,98346.75
2022-11-26T23:50:04.116Z,98331.69
2022-11-26T23:53:05.972Z,98335.78
2022-11-26T23:56:10.928Z,98328.13
2022-11-26T23:59:12.462Z,98321.44
